KMWA/MWA METAR and TAF weather

Enter ICAO airport designator
Station Type Date Time Source
KMWA METAR 2019/08/21 02:55 UTC NOAA

KMWA 210255Z AUTO 00000KT 10SM CLR 22/21 A3001 RMK AO2 T02230205


Station Type Date Time Source
KMWA Decoded METAR 2019/08/21 02:55 UTC NOAA

Station name not available
Aug 20, 2019 - 10:55 PM EDT / 2019.08.21 0255 UTC
Wind: Calm:0
Visibility: 10 mile(s):0
Sky conditions: clear
Temperature: 72.1 F (22.3 C)
Dew Point: 68.9 F (20.5 C)
Relative Humidity: 89%
Pressure (altimeter): 30.01 in. Hg (1016 hPa)
ob: KMWA 210255Z AUTO 00000KT 10SM CLR 22/21 A3001 RMK AO2 T02230205
cycle: 3

Station Type Date Time Source
KMWA TAF UTC NOAA

Error!

Example: see airport list